createdAt,value
2018-03-24T00:02:25.260Z,20.80
2018-03-24T00:04:53.536Z,20.10
2018-03-24T00:07:21.810Z,22.10
2018-03-24T00:09:50.101Z,20.65
2018-03-24T00:12:18.376Z,23.50
2018-03-24T00:14:46.680Z,20.48
2018-03-24T00:17:14.179Z,22.13
2018-03-24T00:19:41.715Z,22.42
2018-03-24T00:22:09.227Z,22.40
2018-03-24T00:24:37.504Z,23.60
2018-03-24T00:27:05.786Z,21.35
2018-03-24T00:29:34.058Z,21.08
2018-03-24T00:32:02.339Z,21.27
2018-03-24T00:34:30.609Z,20.75
2018-03-24T00:36:58.891Z,21.35
2018-03-24T00:39:27.160Z,23.58
2018-03-24T00:41:55.453Z,23.10
2018-03-24T00:44:23.715Z,23.33
2018-03-24T00:46:51.214Z,22.75
2018-03-24T00:49:18.739Z,22.67
2018-03-24T00:51:47.219Z,23.90
2018-03-24T00:54:15.510Z,23.05
2018-03-24T00:56:43.768Z,22.13
2018-03-24T00:59:12.068Z,23.30
2018-03-24T01:01:40.319Z,23.33
2018-03-24T01:04:07.836Z,22.95
2018-03-24T01:06:35.325Z,22.87
2018-03-24T01:09:02.827Z,22.20
2018-03-24T01:11:30.346Z,21.85
2018-03-24T01:13:57.850Z,23.05
2018-03-24T01:16:25.358Z,21.67
2018-03-24T01:18:52.856Z,22.80
2018-03-24T01:21:21.138Z,24.52
2018-03-24T01:23:48.655Z,24.70
2018-03-24T01:26:16.181Z,24.77
2018-03-24T01:28:43.677Z,23.20
2018-03-24T01:31:11.173Z,24.58
2018-03-24T01:33:38.688Z,22.80
2018-03-24T01:36:06.176Z,24.40
2018-03-24T01:38:33.680Z,23.90
2018-03-24T01:41:01.213Z,23.10
2018-03-24T01:43:28.733Z,23.00
2018-03-24T01:45:56.232Z,25.00
2018-03-24T01:48:23.747Z,24.00
2018-03-24T01:50:51.291Z,23.58
2018-03-24T01:53:18.791Z,22.13
2018-03-24T01:55:47.084Z,22.35
2018-03-24T01:58:15.343Z,22.02
2018-03-24T02:00:42.855Z,21.62
2018-03-24T02:03:10.359Z,23.58
2018-03-24T02:05:37.864Z,23.90
2018-03-24T02:08:05.362Z,23.23
2018-03-24T02:10:32.864Z,24.23
2018-03-24T02:13:00.379Z,23.15
2018-03-24T02:15:27.879Z,22.35
2018-03-24T02:17:55.394Z,23.20
2018-03-24T02:20:22.895Z,22.95
2018-03-24T02:22:50.435Z,23.45
2018-03-24T02:25:17.931Z,24.63
2018-03-24T02:27:45.432Z,23.67
2018-03-24T02:30:12.949Z,22.23
2018-03-24T02:32:40.452Z,22.85
2018-03-24T02:35:07.964Z,22.83
2018-03-24T02:37:35.477Z,21.77
2018-03-24T02:40:03.008Z,23.20
2018-03-24T02:42:30.508Z,21.85
2018-03-24T02:44:58.776Z,22.70
2018-03-24T02:47:26.303Z,22.90
2018-03-24T02:49:54.019Z,23.67
2018-03-24T02:52:22.301Z,24.60
2018-03-24T02:54:50.560Z,25.30
2018-03-24T02:57:18.085Z,24.33
2018-03-24T02:59:45.588Z,23.08
2018-03-24T03:02:13.868Z,24.02
2018-03-24T03:04:42.149Z,23.83
2018-03-24T03:07:10.405Z,22.02
2018-03-24T03:09:37.923Z,22.25
2018-03-24T03:12:05.643Z,24.08
2018-03-24T03:14:33.931Z,24.02
2018-03-24T03:17:02.186Z,21.90
2018-03-24T03:19:29.693Z,22.15
2018-03-24T03:21:57.190Z,21.83
2018-03-24T03:24:24.708Z,24.17
2018-03-24T03:26:52.215Z,22.70
2018-03-24T03:29:19.711Z,23.83
2018-03-24T03:31:49.803Z,22.95
2018-03-24T03:34:17.292Z,23.23
2018-03-24T03:36:45.569Z,23.33
2018-03-24T03:39:13.832Z,26.35
2018-03-24T03:41:42.112Z,26.87
2018-03-24T03:44:10.391Z,27.90
2018-03-24T03:46:38.658Z,26.52
2018-03-24T03:49:06.181Z,25.02
2018-03-24T03:51:33.730Z,23.27
2018-03-24T03:54:02.022Z,26.60
2018-03-24T03:56:29.527Z,26.05
2018-03-24T03:58:57.803Z,27.62
2018-03-24T04:01:26.067Z,27.17
2018-03-24T04:03:53.571Z,27.05
2018-03-24T04:06:21.303Z,26.27
2018-03-24T04:08:49.551Z,28.02
2018-03-24T04:11:17.059Z,27.90
2018-03-24T04:13:44.544Z,31.23
2018-03-24T04:16:12.060Z,26.25
2018-03-24T04:18:40.331Z,25.60
2018-03-24T04:21:08.623Z,28.35
2018-03-24T04:23:36.883Z,25.92
2018-03-24T04:26:05.151Z,26.37
2018-03-24T04:28:32.659Z,27.33
2018-03-24T04:31:00.151Z,27.13
2018-03-24T04:33:27.667Z,26.50
2018-03-24T04:35:55.165Z,24.42
2018-03-24T04:38:22.678Z,26.33
2018-03-24T04:40:50.168Z,26.45
2018-03-24T04:43:17.683Z,26.45
2018-03-24T04:45:45.946Z,24.20
2018-03-24T04:48:13.443Z,26.00
2018-03-24T04:50:40.955Z,25.60
2018-03-24T04:53:08.448Z,27.02
2018-03-24T04:55:35.960Z,26.50
2018-03-24T04:58:03.454Z,24.33
2018-03-24T05:00:31.779Z,25.83
2018-03-24T05:02:59.266Z,26.30
2018-03-24T05:05:26.776Z,24.92
2018-03-24T05:07:54.267Z,25.48
2018-03-24T05:10:21.765Z,26.33
2018-03-24T05:12:50.039Z,26.48
2018-03-24T05:15:17.539Z,25.65
2018-03-24T05:17:45.056Z,25.92
2018-03-24T05:20:12.545Z,27.25
2018-03-24T05:22:40.051Z,24.60
2018-03-24T05:25:07.543Z,25.65
2018-03-24T05:27:35.792Z,24.83
2018-03-24T05:30:03.324Z,25.85
2018-03-24T05:32:30.805Z,26.50
2018-03-24T05:34:58.315Z,26.40
2018-03-24T05:37:25.803Z,26.05
2018-03-24T05:39:53.323Z,25.42
2018-03-24T05:42:21.579Z,24.65
2018-03-24T05:44:49.068Z,27.62
2018-03-24T05:47:16.586Z,24.50
2018-03-24T05:49:44.071Z,25.83
2018-03-24T05:52:12.347Z,24.80
2018-03-24T05:54:40.607Z,25.77
2018-03-24T05:57:08.111Z,24.10
2018-03-24T05:59:35.635Z,25.40
2018-03-24T06:02:03.916Z,25.67
2018-03-24T06:04:32.179Z,24.83
2018-03-24T06:06:59.668Z,24.85
2018-03-24T06:09:27.176Z,25.48
2018-03-24T06:11:54.660Z,23.75
2018-03-24T06:14:22.171Z,22.83
2018-03-24T06:16:49.663Z,23.83
2018-03-24T06:19:17.163Z,25.67
2018-03-24T06:21:44.876Z,26.45
2018-03-24T06:24:12.383Z,23.65
2018-03-24T06:26:40.675Z,26.12
2018-03-24T06:29:08.159Z,25.17
2018-03-24T06:34:34.463Z,26.08
2018-03-24T06:37:02.987Z,24.20
2018-03-24T06:39:30.483Z,24.40
2018-03-24T06:41:57.986Z,24.67
2018-03-24T06:44:25.491Z,25.05
2018-03-24T06:46:53.588Z,23.62
2018-03-24T06:49:21.852Z,23.92
2018-03-24T06:51:49.371Z,24.30
2018-03-24T06:54:16.872Z,25.30
2018-03-24T06:56:44.396Z,24.10
2018-03-24T06:59:11.886Z,24.45
2018-03-24T07:01:39.372Z,23.70
2018-03-24T07:04:07.672Z,24.52
2018-03-24T07:06:35.191Z,26.35
2018-03-24T07:09:02.733Z,23.75
2018-03-24T07:11:30.226Z,27.10
2018-03-24T07:13:58.513Z,25.88
2018-03-24T07:16:26.777Z,25.95
2018-03-24T07:18:55.067Z,25.92
2018-03-24T07:21:23.326Z,25.90
2018-03-24T07:23:51.623Z,23.55
2018-03-24T07:26:19.911Z,22.77
2018-03-24T07:28:47.399Z,22.50
2018-03-24T07:31:14.922Z,27.85
2018-03-24T07:33:42.459Z,26.15
2018-03-24T07:36:09.973Z,24.90
2018-03-24T07:38:37.471Z,24.55
2018-03-24T07:41:04.985Z,22.95
2018-03-24T07:43:32.487Z,22.60
2018-03-24T07:45:59.985Z,25.10
2018-03-24T07:48:27.507Z,23.80
2018-03-24T07:50:55.000Z,24.20
2018-03-24T07:53:22.515Z,24.55
2018-03-24T07:55:50.012Z,23.25
2018-03-24T07:58:18.320Z,21.55
2018-03-24T08:00:45.828Z,22.67
2018-03-24T08:03:13.354Z,21.58
2018-03-24T08:05:41.068Z,24.33
2018-03-24T08:08:09.342Z,22.83
2018-03-24T08:10:37.640Z,21.83
2018-03-24T08:13:05.142Z,23.87
2018-03-24T08:15:32.678Z,22.65
2018-03-24T08:18:00.188Z,24.50
2018-03-24T08:20:27.707Z,23.92
2018-03-24T08:22:56.583Z,20.08
2018-03-24T08:25:24.166Z,21.02
2018-03-24T08:27:51.722Z,20.40
2018-03-24T08:30:19.225Z,20.70
2018-03-24T08:32:47.517Z,22.20
2018-03-24T08:35:15.796Z,21.33
2018-03-24T08:37:44.072Z,21.48
2018-03-24T08:40:12.330Z,19.85
2018-03-24T08:42:40.620Z,19.23
2018-03-24T08:45:08.888Z,16.80
2018-03-24T08:47:37.179Z,17.40
2018-03-24T08:50:05.447Z,18.80
2018-03-24T08:52:33.716Z,19.75
2018-03-24T08:55:02.000Z,20.77
2018-03-24T08:57:30.267Z,18.35
2018-03-24T08:59:57.794Z,18.37
2018-03-24T09:02:25.335Z,18.15
2018-03-24T09:04:52.851Z,18.98
2018-03-24T09:07:20.353Z,18.52
2018-03-24T09:09:48.871Z,15.98
2018-03-24T09:12:16.417Z,17.70
2018-03-24T09:14:43.914Z,14.75
2018-03-24T09:17:11.428Z,15.05
2018-03-24T09:19:38.911Z,14.95
2018-03-24T09:22:06.443Z,16.05
2018-03-24T09:24:33.944Z,16.27
2018-03-24T09:27:01.456Z,15.35
2018-03-24T09:29:28.952Z,14.95
2018-03-24T09:31:56.448Z,13.90
2018-03-24T09:34:24.787Z,13.98
2018-03-24T09:36:52.284Z,14.15
2018-03-24T09:39:20.577Z,13.73
2018-03-24T09:41:48.103Z,16.45
2018-03-24T09:44:15.618Z,13.45
2018-03-24T09:46:43.112Z,14.05
2018-03-24T09:49:10.607Z,14.95
2018-03-24T09:51:38.134Z,13.90
2018-03-24T09:54:05.650Z,14.00
2018-03-24T09:56:33.167Z,12.37
2018-03-24T09:59:01.452Z,13.27
2018-03-24T10:01:29.741Z,12.68
2018-03-24T10:03:57.236Z,11.88
2018-03-24T10:06:24.752Z,11.88
2018-03-24T10:08:53.026Z,11.75
2018-03-24T10:11:21.299Z,10.95
2018-03-24T10:13:49.572Z,11.85
2018-03-24T10:16:17.844Z,10.43
2018-03-24T10:18:46.124Z,10.13
2018-03-24T10:24:29.566Z,9.02
2018-03-24T10:26:57.053Z,8.27
2018-03-24T10:29:24.627Z,9.13
2018-03-24T10:31:52.124Z,10.00
2018-03-24T10:34:19.634Z,9.68
2018-03-24T10:36:47.143Z,8.90
2018-03-24T10:39:14.640Z,9.23
2018-03-24T10:41:42.921Z,8.52
2018-03-24T10:44:11.397Z,9.18
2018-03-24T10:46:39.774Z,9.63
2018-03-24T10:49:08.062Z,10.43
2018-03-24T10:51:35.564Z,10.45
2018-03-24T10:54:03.109Z,10.77
2018-03-24T10:56:30.604Z,12.40
2018-03-24T10:58:58.124Z,10.05
2018-03-24T11:01:25.611Z,9.65
2018-03-24T11:03:53.114Z,10.75
2018-03-24T11:06:21.375Z,10.70
2018-03-24T11:08:48.861Z,9.00
2018-03-24T11:11:17.195Z,8.57
2018-03-24T11:13:44.640Z,9.50
2018-03-24T11:16:12.303Z,9.38
2018-03-24T11:18:39.846Z,9.35
2018-03-24T11:21:07.382Z,9.70
2018-03-24T11:23:34.871Z,8.70
2018-03-24T11:26:02.387Z,8.75
2018-03-24T11:28:30.662Z,8.18
2018-03-24T11:30:58.923Z,8.10
2018-03-24T11:33:26.459Z,8.70
2018-03-24T11:35:54.711Z,9.43
2018-03-24T11:38:22.230Z,8.52
2018-03-24T11:40:50.487Z,9.90
2018-03-24T11:43:18.037Z,8.50
2018-03-24T11:45:45.569Z,9.65
2018-03-24T11:48:13.109Z,10.20
2018-03-24T11:50:40.640Z,9.48
2018-03-24T11:53:08.135Z,9.25
2018-03-24T11:55:35.644Z,9.23
2018-03-24T11:58:03.131Z,9.48
2018-03-24T12:00:31.752Z,9.02
2018-03-24T12:02:59.293Z,7.93
2018-03-24T12:05:26.827Z,9.30
2018-03-24T12:07:55.123Z,9.48
2018-03-24T12:10:23.400Z,9.70
2018-03-24T12:12:51.696Z,10.05
2018-03-24T12:15:19.201Z,9.20
2018-03-24T12:17:46.711Z,10.00
2018-03-24T12:20:14.247Z,9.38
2018-03-24T12:22:42.520Z,8.93
2018-03-24T12:25:10.819Z,9.15
2018-03-24T12:27:38.326Z,8.68
2018-03-24T12:30:05.872Z,10.50
2018-03-24T12:32:33.374Z,10.38
2018-03-24T12:35:00.904Z,10.27
2018-03-24T12:37:28.429Z,9.68
2018-03-24T12:39:55.962Z,9.65
2018-03-24T12:42:24.253Z,11.25
2018-03-24T12:44:52.506Z,11.20
2018-03-24T12:47:20.995Z,9.05
2018-03-24T12:49:49.268Z,10.18
2018-03-24T12:52:17.562Z,8.57
2018-03-24T12:54:45.089Z,8.45
2018-03-24T12:57:13.449Z,15.93
2018-03-24T12:59:40.991Z,10.60
2018-03-24T13:02:08.521Z,9.80
2018-03-24T13:04:36.176Z,11.23
2018-03-24T13:07:04.505Z,11.57
2018-03-24T13:09:32.033Z,11.73
2018-03-24T13:12:00.285Z,9.88
2018-03-24T13:14:28.571Z,10.50
2018-03-24T13:16:56.100Z,11.20
2018-03-24T13:19:23.643Z,9.55
2018-03-24T13:21:51.168Z,10.45
2018-03-24T13:24:18.680Z,9.82
2018-03-24T13:26:46.204Z,10.07
2018-03-24T13:29:13.741Z,9.90
2018-03-24T13:31:41.260Z,9.90
2018-03-24T13:34:08.796Z,11.70
2018-03-24T13:36:36.323Z,12.10
2018-03-24T13:39:04.299Z,10.45
2018-03-24T13:41:31.800Z,11.15
2018-03-24T13:43:59.548Z,11.30
2018-03-24T13:46:27.052Z,11.80
2018-03-24T13:48:55.343Z,10.98
2018-03-24T13:51:24.098Z,9.55
2018-03-24T13:53:51.604Z,11.32
2018-03-24T13:56:19.155Z,10.90
2018-03-24T13:58:46.673Z,11.95
2018-03-24T14:01:14.301Z,10.88
2018-03-24T14:03:41.826Z,10.65
2018-03-24T14:06:09.328Z,10.50
2018-03-24T14:08:36.852Z,11.18
2018-03-24T14:11:05.123Z,12.70
2018-03-24T14:13:32.676Z,11.98
2018-03-24T14:16:00.984Z,11.32
2018-03-24T14:18:29.225Z,11.93
2018-03-24T14:20:56.748Z,12.30
2018-03-24T14:23:24.267Z,11.10
2018-03-24T14:25:52.558Z,9.35
2018-03-24T14:28:20.075Z,12.63
2018-03-24T14:30:47.606Z,11.43
2018-03-24T14:33:15.142Z,12.30
2018-03-24T14:35:42.682Z,12.15
2018-03-24T14:38:10.965Z,12.55
2018-03-24T14:40:38.500Z,11.70
2018-03-24T14:43:06.868Z,11.70
2018-03-24T14:45:34.407Z,10.73
2018-03-24T14:48:01.910Z,12.10
2018-03-24T14:50:29.455Z,11.77
2018-03-24T14:52:56.989Z,11.40
2018-03-24T14:55:24.499Z,12.20
2018-03-24T14:57:52.049Z,12.75
2018-03-24T15:00:21.444Z,12.13
2018-03-24T15:02:49.007Z,12.93
2018-03-24T15:05:16.527Z,12.20
2018-03-24T15:07:44.062Z,12.05
2018-03-24T15:10:11.623Z,13.65
2018-03-24T15:12:39.913Z,12.30
2018-03-24T15:15:08.207Z,12.43
2018-03-24T15:17:35.846Z,12.90
2018-03-24T15:20:03.374Z,13.45
2018-03-24T15:22:31.651Z,12.45
2018-03-24T15:24:59.940Z,11.23
2018-03-24T15:27:27.455Z,11.43
2018-03-24T15:30:06.835Z,12.43
2018-03-24T15:32:46.061Z,11.80
2018-03-24T15:35:31.285Z,12.13
2018-03-24T15:37:58.854Z,12.52
2018-03-24T15:40:27.216Z,11.30
2018-03-24T15:42:55.510Z,12.52
2018-03-24T15:45:23.022Z,12.70
2018-03-24T15:47:50.577Z,12.10
2018-03-24T15:50:18.097Z,11.25
2018-03-24T15:52:45.616Z,12.70
2018-03-24T15:55:13.140Z,13.70
2018-03-24T15:57:40.684Z,12.23
2018-03-24T16:00:08.195Z,13.18
2018-03-24T16:02:35.752Z,12.00
2018-03-24T16:05:03.291Z,11.98
2018-03-24T16:07:31.585Z,11.40
2018-03-24T16:10:00.908Z,13.20
2018-03-24T16:12:28.659Z,13.00
2018-03-24T16:14:56.421Z,13.70
2018-03-24T16:17:23.917Z,13.02
2018-03-24T16:19:51.433Z,13.20
2018-03-24T16:22:18.932Z,12.77
2018-03-24T16:24:46.510Z,12.82
2018-03-24T16:27:14.019Z,11.75
2018-03-24T16:29:41.528Z,11.18
2018-03-24T16:32:09.099Z,11.85
2018-03-24T16:34:36.748Z,11.38
2018-03-24T16:37:05.065Z,11.18
2018-03-24T16:39:33.480Z,12.13
2018-03-24T16:42:00.997Z,12.10
2018-03-24T16:44:29.292Z,12.45
2018-03-24T16:46:56.821Z,11.55
2018-03-24T16:49:24.323Z,12.15
2018-03-24T16:51:51.863Z,11.18
2018-03-24T16:54:19.390Z,12.57
2018-03-24T16:56:46.899Z,13.52
2018-03-24T16:59:14.422Z,13.05
2018-03-24T17:01:41.914Z,11.50
2018-03-24T17:04:09.455Z,11.32
2018-03-24T17:06:37.893Z,10.70
2018-03-24T17:09:05.407Z,11.07
2018-03-24T17:11:33.234Z,12.25
2018-03-24T17:14:01.707Z,11.50
2018-03-24T17:16:31.039Z,11.38
2018-03-24T17:18:58.560Z,11.27
2018-03-24T17:21:26.073Z,11.05
2018-03-24T17:23:53.576Z,11.65
2018-03-24T17:26:21.115Z,11.88
2018-03-24T17:28:48.636Z,11.63
2018-03-24T17:31:16.923Z,11.85
2018-03-24T17:33:45.315Z,12.63
2018-03-24T17:36:12.851Z,11.38
2018-03-24T17:38:40.404Z,11.15
2018-03-24T17:41:07.920Z,10.82
2018-03-24T17:43:35.459Z,10.10
2018-03-24T17:46:02.969Z,11.23
2018-03-24T17:48:30.468Z,10.20
2018-03-24T17:50:59.006Z,11.98
2018-03-24T17:53:26.501Z,11.70
2018-03-24T17:55:55.042Z,11.27
2018-03-24T17:58:22.588Z,11.77
2018-03-24T18:00:50.115Z,10.30
2018-03-24T18:03:22.533Z,10.57
2018-03-24T18:05:50.060Z,11.95
2018-03-24T18:08:17.572Z,13.05
2018-03-24T18:10:45.075Z,11.38
2018-03-24T18:13:12.612Z,12.98
2018-03-24T18:15:40.875Z,11.07
2018-03-24T18:18:08.396Z,12.00
2018-03-24T18:20:36.758Z,11.30
2018-03-24T18:23:06.574Z,10.95
2018-03-24T18:25:34.533Z,11.02
2018-03-24T18:28:02.046Z,11.52
2018-03-24T18:30:33.357Z,11.50
2018-03-24T18:33:00.883Z,12.80
2018-03-24T18:35:30.837Z,12.32
2018-03-24T18:37:58.397Z,10.82
2018-03-24T18:40:26.132Z,12.07
2018-03-24T18:42:54.409Z,11.45
2018-03-24T18:45:22.010Z,10.95
2018-03-24T18:47:49.534Z,11.90
2018-03-24T18:50:17.797Z,12.70
2018-03-24T18:52:46.189Z,11.10
2018-03-24T18:55:14.447Z,12.00
2018-03-24T18:57:41.970Z,11.50
2018-03-24T19:00:09.501Z,11.82
2018-03-24T19:02:37.996Z,11.73
2018-03-24T19:05:05.504Z,12.23
2018-03-24T19:07:33.034Z,11.82
2018-03-24T19:10:00.573Z,13.88
2018-03-24T19:12:28.069Z,12.45
2018-03-24T19:14:55.593Z,12.18
2018-03-24T19:17:23.331Z,11.45
2018-03-24T19:19:51.622Z,13.15
2018-03-24T19:22:19.136Z,12.43
2018-03-24T19:24:46.658Z,14.27
2018-03-24T19:27:14.176Z,14.20
2018-03-24T19:29:42.463Z,12.35
2018-03-24T19:32:10.427Z,14.40
2018-03-24T19:34:38.737Z,13.13
2018-03-24T19:37:06.513Z,13.62
2018-03-24T19:39:34.508Z,13.10
2018-03-24T19:42:02.032Z,14.65
2018-03-24T19:44:29.536Z,14.07
2018-03-24T19:46:57.075Z,13.07
2018-03-24T19:49:24.587Z,15.85
2018-03-24T19:51:53.135Z,13.20
2018-03-24T19:54:21.031Z,14.95
2018-03-24T19:56:49.349Z,14.10
2018-03-24T19:59:16.889Z,14.40
2018-03-24T20:01:44.386Z,13.52
2018-03-24T20:04:11.944Z,15.45
2018-03-24T20:06:39.447Z,13.05
2018-03-24T20:09:07.017Z,13.15
2018-03-24T20:11:36.311Z,13.07
2018-03-24T20:14:04.566Z,14.80
2018-03-24T20:16:32.088Z,15.23
2018-03-24T20:18:59.584Z,14.10
2018-03-24T20:21:27.116Z,15.23
2018-03-24T20:23:54.621Z,13.82
2018-03-24T20:26:22.947Z,14.85
2018-03-24T20:28:50.435Z,14.52
2018-03-24T20:31:17.947Z,15.07
2018-03-24T20:33:45.467Z,15.95
2018-03-24T20:36:12.966Z,14.55
2018-03-24T20:38:40.480Z,16.00
2018-03-24T20:41:07.972Z,15.15
2018-03-24T20:43:35.492Z,13.98
2018-03-24T20:46:03.013Z,14.32
2018-03-24T20:48:30.511Z,16.17
2018-03-24T20:50:58.048Z,16.12
2018-03-24T20:53:25.575Z,15.70
2018-03-24T20:55:53.122Z,17.10
2018-03-24T20:58:20.648Z,17.15
2018-03-24T21:00:48.189Z,16.70
2018-03-24T21:03:15.743Z,16.90
2018-03-24T21:05:43.240Z,16.10
2018-03-24T21:08:10.753Z,17.00
2018-03-24T21:10:38.391Z,16.75
2018-03-24T21:13:05.972Z,17.20
2018-03-24T21:15:33.474Z,16.17
2018-03-24T21:18:00.978Z,18.05
2018-03-24T21:20:28.536Z,16.37
2018-03-24T21:22:56.797Z,16.40
2018-03-24T21:25:25.113Z,17.12
2018-03-24T21:27:52.616Z,17.90
2018-03-24T21:30:20.122Z,17.73
2018-03-24T21:32:47.648Z,18.52
2018-03-24T21:35:15.963Z,17.70
2018-03-24T21:37:43.475Z,17.80
2018-03-24T21:40:10.985Z,18.37
2018-03-24T21:42:38.501Z,17.42
2018-03-24T21:45:06.787Z,16.95
2018-03-24T21:47:35.052Z,18.83
2018-03-24T21:50:02.567Z,18.83
2018-03-24T21:52:30.068Z,18.23
2018-03-24T21:54:57.588Z,18.60
2018-03-24T21:57:25.094Z,19.87
2018-03-24T21:59:53.383Z,18.15
2018-03-24T22:02:20.918Z,19.40
2018-03-24T22:04:48.416Z,17.17
2018-03-24T22:07:15.931Z,16.65
2018-03-24T22:09:43.437Z,19.60
2018-03-24T22:12:11.669Z,19.27
2018-03-24T22:14:39.326Z,18.42
2018-03-24T22:17:06.957Z,19.40
2018-03-24T22:19:34.470Z,19.00
2018-03-24T22:22:02.738Z,19.27
2018-03-24T22:24:30.263Z,20.00
2018-03-24T22:26:57.803Z,20.25
2018-03-24T22:29:25.357Z,20.10
2018-03-24T22:31:52.859Z,19.05
2018-03-24T22:34:20.410Z,20.05
2018-03-24T22:36:47.912Z,21.23
2018-03-24T22:39:16.176Z,20.95
2018-03-24T22:41:43.692Z,18.60
2018-03-24T22:44:11.949Z,19.52
2018-03-24T22:46:39.469Z,19.40
2018-03-24T22:49:07.083Z,21.10
2018-03-24T22:51:34.592Z,20.08
2018-03-24T22:54:02.109Z,19.45
2018-03-24T22:56:30.376Z,20.05
2018-03-24T22:58:57.950Z,20.65
2018-03-24T23:01:25.458Z,18.75
2018-03-24T23:03:53.734Z,20.42
2018-03-24T23:06:22.020Z,18.17
2018-03-24T23:08:50.302Z,19.10
2018-03-24T23:11:18.802Z,22.05
2018-03-24T23:13:46.308Z,20.83
2018-03-24T23:16:13.840Z,21.75
2018-03-24T23:18:41.334Z,20.75
2018-03-24T23:21:08.883Z,19.27
2018-03-24T23:23:36.414Z,19.33
2018-03-24T23:26:03.914Z,21.08
2018-03-24T23:28:31.435Z,19.40
2018-03-24T23:30:58.981Z,20.77
2018-03-24T23:33:26.522Z,20.62
2018-03-24T23:35:54.047Z,21.48
2018-03-24T23:38:21.582Z,20.50
2018-03-24T23:40:49.093Z,19.73
2018-03-24T23:43:17.362Z,19.85
2018-03-24T23:45:44.955Z,20.75
2018-03-24T23:48:12.456Z,19.17
2018-03-24T23:50:39.982Z,21.65
2018-03-24T23:53:07.525Z,19.65
2018-03-24T23:55:35.091Z,20.15
2018-03-24T23:58:02.648Z,20.95
